.
WxDataArchive / Data Records for 2012-07-07
2012-07-06 July 2012 2012-07-08

Data Records for Saturday, 07 July 2012

Time	Temp	Chill	HIndex	Humid	Dewpt	 Wind 	HiWind	WindDir	Rain 	Barom 
-----	----	-----	------	-----	-----	------	------	-------	-----	----- 
00:00	88.8	88.8	96.9	60	73.1	1	1	90	0.00	29.885 
00:05	88.8	88.8	96.9	60	73.1	0	1	90	0.00	29.885 
00:10	88.6	88.6	96.5	60	72.9	0	1	90	0.00	29.885 
00:15	88.4	88.4	96.5	61	73.2	0	0	---	0.00	29.885 
00:20	88.2	88.2	96.1	61	73.0	0	1	90	0.00	29.885 
00:25	88.0	88.0	96.1	62	73.3	0	1	90	0.00	29.885 
00:30	88.0	88.0	96.1	62	73.3	0	1	90	0.00	29.893 
00:35	87.8	87.8	95.6	62	73.1	0	1	90	0.00	29.893 
00:40	87.6	87.6	95.2	62	72.9	0	1	90	0.00	29.893 
00:45	87.4	87.4	95.2	63	73.2	0	1	90	0.00	29.895 
00:50	87.4	87.4	95.2	63	73.2	0	1	90	0.00	29.895 
00:55	87.4	87.4	95.2	63	73.2	0	1	90	0.00	29.895 
01:00	87.4	87.4	95.2	63	73.2	0	1	90	0.00	29.897 
01:05	87.2	87.2	94.8	63	73.0	0	1	90	0.00	29.897 
01:10	87.2	87.2	94.8	63	73.0	0	1	90	0.00	29.897 
01:15	87.2	87.2	94.8	63	73.0	0	1	90	0.00	29.896 
01:20	87.0	87.0	94.8	64	73.3	0	1	90	0.00	29.896 
01:25	87.0	87.0	94.8	64	73.3	0	0	---	0.00	29.896 
01:30	86.7	86.7	94.1	64	73.0	0	0	---	0.00	29.895 
01:35	86.5	86.5	94.1	65	73.3	0	1	90	0.00	29.895 
01:40	86.5	86.5	94.1	65	73.3	0	1	90	0.00	29.895 
01:45	86.5	86.5	94.1	65	73.3	0	1	90	0.00	29.895 
01:50	86.3	86.3	93.6	65	73.1	0	1	90	0.00	29.895 
01:55	86.1	86.1	93.2	65	72.9	0	0	---	0.00	29.895 
02:00	86.1	86.1	93.6	66	73.4	0	1	90	0.00	29.889 
02:05	86.1	86.1	93.6	66	73.4	0	1	90	0.00	29.889 
02:10	85.9	85.9	93.2	66	73.2	0	1	90	0.00	29.889 
02:15	85.9	85.9	93.6	67	73.6	0	0	---	0.00	29.888 
02:20	85.7	85.7	93.1	67	73.4	0	0	---	0.00	29.888 
02:25	85.5	85.5	93.1	68	73.7	0	0	---	0.00	29.888 
02:30	85.5	85.5	93.1	68	73.7	0	0	---	0.00	29.887 
02:35	85.3	85.3	92.6	68	73.5	0	0	---	0.00	29.887 
02:40	85.1	85.1	92.6	69	73.8	0	0	---	0.00	29.887 
02:45	84.9	84.9	92.1	69	73.6	0	0	---	0.00	29.888 
02:50	84.9	84.9	92.1	69	73.6	0	0	---	0.00	29.888 
02:55	84.7	84.7	91.7	69	73.4	0	0	---	0.00	29.888 
03:00	84.7	84.7	92.0	70	73.8	0	0	---	0.00	29.884 
03:05	84.5	84.5	91.6	70	73.6	0	0	---	0.00	29.884 
03:10	84.1	84.1	91.0	71	73.7	0	0	---	0.00	29.884 
03:15	84.0	84.0	91.1	72	74.0	0	0	---	0.00	29.878 
03:20	84.0	84.0	91.1	72	74.0	0	0	---	0.00	29.878 
03:25	83.8	83.8	91.0	73	74.2	0	0	---	0.00	29.878 
03:30	83.8	83.8	91.0	73	74.2	0	0	---	0.00	29.876 
03:35	83.8	83.8	91.0	73	74.2	0	0	---	0.00	29.876 
03:40	83.8	83.8	91.0	73	74.2	0	0	---	0.00	29.876 
03:45	83.6	83.6	90.5	73	74.0	0	0	---	0.00	29.877 
03:50	83.6	83.6	90.5	73	74.0	0	1	90	0.00	29.877 
03:55	83.8	83.8	91.0	73	74.2	0	1	90	0.00	29.877 
04:00	84.0	84.0	91.1	72	74.0	0	0	---	0.00	29.876 
04:05	84.0	84.0	91.1	72	74.0	0	0	---	0.00	29.876 
04:10	84.0	84.0	91.1	72	74.0	0	0	---	0.00	29.876 
04:15	84.0	84.0	91.1	72	74.0	0	1	90	0.00	29.884 
04:20	84.0	84.0	91.1	72	74.0	0	0	---	0.00	29.884 
04:25	84.0	84.0	91.1	72	74.0	0	0	---	0.00	29.884 
04:30	83.8	83.8	90.7	72	73.8	0	0	---	0.00	29.879 
04:35	83.8	83.8	90.7	72	73.8	0	1	90	0.00	29.879 
04:40	83.8	83.8	90.7	72	73.8	0	0	---	0.00	29.879 
04:45	83.8	83.8	90.7	72	73.8	0	1	90	0.00	29.886 
04:50	83.8	83.8	90.7	72	73.8	0	1	90	0.00	29.886 
04:55	83.8	83.8	90.7	72	73.8	0	1	90	0.00	29.886 
05:00	83.8	83.8	90.7	72	73.8	0	1	90	0.00	29.889 
05:05	83.8	83.8	90.7	72	73.8	0	1	90	0.00	29.889 
05:10	83.6	83.6	90.2	72	73.6	0	1	90	0.00	29.889 
05:15	83.4	83.4	89.8	72	73.4	0	1	90	0.00	29.892 
05:20	83.2	83.2	89.4	72	73.2	0	1	90	0.00	29.892 
05:25	83.2	83.2	89.4	72	73.2	0	0	---	0.00	29.892 
05:30	83.0	83.0	89.2	73	73.4	0	0	---	0.00	29.891 
05:35	82.8	82.8	88.8	73	73.2	0	1	90	0.00	29.891 
05:40	82.8	82.8	88.8	73	73.2	0	1	90	0.00	29.891 
05:45	82.6	82.6	88.4	73	73.0	0	1	90	0.00	29.891 
05:50	82.6	82.6	88.4	73	73.0	0	1	90	0.00	29.891 
05:55	82.6	82.6	88.4	73	73.0	0	1	90	0.00	29.891 
06:00	82.6	82.6	88.4	73	73.0	0	0	---	0.00	29.891 
06:05	82.4	82.4	87.9	73	72.9	0	1	90	0.00	29.891 
06:10	82.4	82.4	87.9	73	72.9	0	0	---	0.00	29.891 
06:15	82.2	82.2	87.5	73	72.7	0	0	---	0.00	29.895 
06:20	82.2	82.2	87.5	73	72.7	0	0	---	0.00	29.895 
06:25	81.8	81.8	86.9	74	72.7	0	1	90	0.00	29.895 
06:30	81.8	81.8	86.9	74	72.7	0	1	90	0.00	29.897 
06:35	81.8	81.8	86.9	74	72.7	0	2	90	0.00	29.897 
06:40	81.8	81.8	86.9	74	72.7	0	1	90	0.00	29.897 
06:45	82.0	82.0	87.3	74	72.9	0	2	90	0.00	29.901 
06:50	82.0	82.0	87.1	73	72.5	0	1	90	0.00	29.901 
06:55	82.0	82.0	87.1	73	72.5	0	1	90	0.00	29.901 
07:00	82.2	82.2	87.5	73	72.7	1	3	90	0.00	29.905 
07:05	82.2	82.2	87.5	73	72.7	0	2	90	0.00	29.905 
07:10	82.4	82.4	87.7	72	72.4	0	1	90	0.00	29.905 
07:15	82.6	82.6	88.1	72	72.6	0	1	90	0.00	29.905 
07:20	82.8	82.8	88.2	71	72.4	1	2	90	0.00	29.905 
07:25	83.0	83.0	88.4	70	72.2	0	2	90	0.00	29.905 
07:30	83.4	83.4	88.9	69	72.1	0	2	90	0.00	29.905 
07:35	83.6	83.6	89.3	69	72.3	0	1	90	0.00	29.905 
07:40	83.8	83.8	89.4	68	72.1	1	2	90	0.00	29.905 
07:45	84.0	84.0	89.5	67	71.8	1	2	90	0.00	29.906 
07:50	84.1	84.1	89.7	67	71.9	1	2	90	0.00	29.906 
07:55	84.3	84.3	89.8	66	71.7	0	1	90	0.00	29.906 
08:00	84.7	84.7	90.3	65	71.6	1	4	90	0.00	29.907 
08:05	85.1	85.1	90.8	64	71.5	1	3	90	0.00	29.907 
08:10	85.5	85.5	90.8	62	71.0	2	3	90	0.00	29.907 
08:15	85.7	85.7	91.2	62	71.1	1	2	45	0.00	29.914 
08:20	86.1	86.1	91.3	60	70.6	1	3	0	0.00	29.914 
08:25	86.3	86.3	91.7	60	70.7	1	4	292	0.00	29.914 
08:30	86.5	86.5	91.7	59	70.4	1	3	270	0.00	29.917 
08:35	86.7	86.7	92.1	59	70.6	1	3	270	0.00	29.917 
08:40	87.0	87.0	92.3	58	70.4	1	3	270	0.00	29.917 
08:45	87.4	87.4	93.0	58	70.8	1	3	270	0.00	29.910 
08:50	87.6	87.6	93.0	57	70.4	1	2	270	0.00	29.910 
08:55	88.0	88.0	93.8	57	70.8	1	2	270	0.00	29.910 
09:00	88.0	88.0	93.4	56	70.3	2	3	270	0.00	29.909 
09:05	88.0	88.0	93.4	56	70.3	1	3	270	0.00	29.909 
09:10	88.2	88.2	94.2	57	71.0	1	2	270	0.00	29.909 
09:15	88.4	88.4	93.7	55	70.1	2	4	270	0.00	29.918 
09:20	88.4	88.4	93.7	55	70.1	2	4	270	0.00	29.918 
09:25	88.6	88.6	94.1	55	70.3	2	4	270	0.00	29.918 
09:30	88.8	88.8	94.5	55	70.5	1	3	270	0.00	29.916 
09:35	89.0	89.0	94.5	54	70.2	2	4	270	0.00	29.916 
09:40	89.5	89.5	95.0	53	70.1	1	2	270	0.00	29.916 
09:45	89.9	89.9	95.3	52	69.9	1	3	270	0.00	29.907 
09:50	90.1	90.1	95.7	52	70.1	2	4	292	0.00	29.907 
09:55	90.3	90.3	95.2	50	69.1	2	5	292	0.00	29.907 
10:00	90.5	90.5	96.0	51	69.9	2	3	292	0.00	29.905 
10:05	91.0	91.0	97.0	51	70.3	2	4	292	0.00	29.905 
10:10	91.4	91.4	97.3	50	70.1	2	4	315	0.00	29.905 
10:15	91.4	91.4	97.3	50	70.1	3	5	270	0.00	29.911 
10:20	91.6	91.6	97.7	50	70.3	2	3	270	0.00	29.911 
10:25	92.1	92.1	98.2	49	70.1	2	5	270	0.00	29.911 
10:30	92.3	92.3	98.6	49	70.3	2	4	270	0.00	29.906 
10:35	92.5	92.5	98.5	48	69.9	2	3	270	0.00	29.906 
10:40	92.9	92.9	99.3	48	70.3	2	3	270	0.00	29.906 
10:45	93.4	93.4	99.2	46	69.5	2	4	270	0.00	29.906 
10:50	93.8	93.8	98.9	44	68.5	3	5	270	0.00	29.906 
10:55	94.3	94.3	100.4	45	69.6	2	5	270	0.00	29.906 
11:00	94.7	94.7	100.1	43	68.7	2	5	270	0.00	29.905 
11:05	94.9	94.9	100.5	43	68.8	2	5	270	0.00	29.905 
11:10	95.4	95.4	100.3	41	67.9	2	6	270	0.00	29.905 
11:15	95.4	95.4	100.3	41	67.9	4	6	270	0.00	29.913 
11:20	95.4	95.4	100.9	42	68.6	3	6	270	0.00	29.913 
11:25	95.6	95.6	100.7	41	68.1	2	4	315	0.00	29.913 
11:30	96.1	96.1	101.1	40	67.8	3	4	270	0.00	29.912 
11:35	95.9	95.9	100.7	40	67.6	3	7	315	0.00	29.912 
11:40	95.9	95.9	101.3	41	68.4	2	6	315	0.00	29.912 
11:45	95.9	95.9	100.7	40	67.6	2	4	292	0.00	29.913 
11:50	96.1	96.1	100.5	39	67.1	2	5	292	0.00	29.913 
11:55	96.3	96.3	100.9	39	67.3	2	4	292	0.00	29.913 
12:00	97.1	97.1	101.8	38	67.2	1	4	292	0.00	29.908 
12:05	97.3	97.3	102.2	38	67.4	2	5	315	0.00	29.908 
12:10	97.5	97.5	102.0	37	66.8	2	4	315	0.00	29.908 
12:15	97.8	97.8	102.5	37	67.0	1	4	315	0.00	29.908 
12:20	98.2	98.2	102.1	35	65.8	3	5	270	0.00	29.908 
12:25	98.5	98.5	102.6	35	66.1	2	5	270	0.00	29.908 
12:30	98.0	98.0	101.1	34	64.8	2	5	270	0.00	29.906 
12:35	98.0	98.0	101.7	35	65.6	1	3	315	0.00	29.906 
12:40	98.5	98.5	102.6	35	66.1	2	7	315	0.00	29.906 
12:45	98.2	98.2	100.9	33	64.1	3	7	292	0.00	29.903 
12:50	98.2	98.2	100.9	33	64.1	3	7	315	0.00	29.903 
12:55	98.2	98.2	101.5	34	65.0	2	5	315	0.00	29.903 
13:00	98.7	98.7	102.4	34	65.4	2	4	270	0.00	29.904 
13:05	99.2	99.2	102.7	33	65.0	2	6	292	0.00	29.904 
13:10	99.9	99.9	102.7	31	63.8	2	5	292	0.00	29.904 
13:15	99.9	99.9	104.0	33	65.6	2	5	270	0.00	29.903 
13:20	99.9	99.9	102.7	31	63.8	3	5	315	0.00	29.903 
13:25	99.9	99.9	103.3	32	64.7	2	5	270	0.00	29.903 
13:30	100.2	100.2	103.3	31	64.0	3	7	270	0.00	29.899 
13:35	99.4	99.4	102.4	32	64.3	3	5	270	0.00	29.899 
13:40	99.7	99.7	103.0	32	64.5	2	6	270	0.00	29.899 
13:45	99.9	99.9	103.3	32	64.7	3	6	270	0.00	29.893 
13:50	99.9	99.9	104.0	33	65.6	3	5	270	0.00	29.893 
13:55	100.2	100.2	103.3	31	64.0	2	6	270	0.00	29.893 
14:00	99.9	99.9	102.1	30	62.8	3	6	270	0.00	29.891 
14:05	99.9	99.9	102.7	31	63.8	2	6	338	0.00	29.891 
14:10	99.9	99.9	102.1	30	62.8	3	6	270	0.00	29.891 
14:15	99.9	99.9	101.6	29	61.9	3	5	270	0.00	29.891 
14:20	100.2	100.2	103.9	32	64.9	4	7	270	0.00	29.891 
14:25	99.9	99.9	104.0	33	65.6	2	4	292	0.00	29.891 
14:30	99.9	99.9	104.0	33	65.6	3	6	270	0.00	29.888 
14:35	99.7	99.7	103.6	33	65.4	3	6	315	0.00	29.888 
14:40	99.7	99.7	103.6	33	65.4	2	4	270	0.00	29.888 
14:45	99.4	99.4	101.9	31	63.3	2	4	338	0.00	29.881 
14:50	99.4	99.4	101.3	30	62.4	2	5	270	0.00	29.881 
14:55	99.0	99.0	100.6	30	62.1	1	3	292	0.00	29.881 
15:00	99.0	99.0	101.2	31	63.0	2	4	292	0.00	29.881 
15:05	99.7	99.7	100.7	28	60.7	2	5	292	0.00	29.881 
15:10	100.4	100.4	101.8	28	61.3	1	4	270	0.00	29.881 
15:15	100.7	100.7	102.3	28	61.6	2	7	270	0.00	29.876 
15:20	101.0	101.0	102.8	28	61.8	1	4	315	0.00	29.876 
15:25	101.0	101.0	102.8	28	61.8	2	6	315	0.00	29.876 
15:30	101.5	101.5	103.1	27	61.2	2	3	270	0.00	29.875 
15:35	101.0	101.0	102.2	27	60.8	3	6	292	0.00	29.875 
15:40	101.0	101.0	102.8	28	61.8	2	5	292	0.00	29.875 
15:45	101.2	101.2	103.2	28	62.0	2	5	270	0.00	29.873 
15:50	101.2	101.2	103.8	29	63.0	1	3	270	0.00	29.873 
15:55	101.5	101.5	103.1	27	61.2	2	5	270	0.00	29.873 
16:00	101.5	101.5	103.7	28	62.2	3	5	315	0.00	29.869 
16:05	100.7	100.7	101.8	27	60.5	2	5	270	0.00	29.869 
16:10	100.4	100.4	102.4	29	62.3	3	7	270	0.00	29.869 
16:15	100.4	100.4	102.4	29	62.3	3	6	315	0.00	29.866 
16:20	100.7	100.7	102.3	28	61.6	3	5	292	0.00	29.866 
16:25	99.9	99.9	102.1	30	62.8	3	4	270	0.00	29.866 
16:30	100.2	100.2	102.7	30	63.1	1	3	270	0.00	29.858 
16:35	101.0	101.0	103.4	29	62.8	2	6	270	0.00	29.858 
16:40	101.0	101.0	102.8	28	61.8	2	6	292	0.00	29.858 
16:45	100.4	100.4	101.8	28	61.3	2	5	292	0.00	29.860 
16:50	99.9	99.9	102.1	30	62.8	2	5	270	0.00	29.860 
16:55	100.4	100.4	101.3	27	60.3	2	5	270	0.00	29.860 
17:00	100.7	100.7	102.3	28	61.6	3	7	270	0.00	29.858 
17:05	100.7	100.7	102.9	29	62.6	2	5	270	0.00	29.858 
17:10	100.7	100.7	102.3	28	61.6	1	3	270	0.00	29.858 
17:15	100.7	100.7	101.8	27	60.5	3	5	292	0.00	29.854 
17:20	101.0	101.0	102.2	27	60.8	1	5	292	0.00	29.854 
17:25	101.0	101.0	102.8	28	61.8	2	4	315	0.00	29.854 
17:30	101.0	101.0	102.2	27	60.8	3	7	248	0.00	29.854 
17:35	101.0	101.0	102.8	28	61.8	1	4	248	0.00	29.854 
17:40	101.2	101.2	102.6	27	61.0	1	4	315	0.00	29.854 
17:45	101.2	101.2	102.6	27	61.0	2	5	315	0.00	29.856 
17:50	101.0	101.0	102.8	28	61.8	2	5	270	0.00	29.856 
17:55	100.7	100.7	102.3	28	61.6	3	7	270	0.00	29.856 
18:00	100.7	100.7	102.3	28	61.6	2	5	292	0.00	29.852 
18:05	100.4	100.4	102.4	29	62.3	1	4	315	0.00	29.852 
18:10	100.4	100.4	101.8	28	61.3	3	6	270	0.00	29.852 
18:15	100.2	100.2	102.1	29	62.1	3	5	270	0.00	29.848 
18:20	99.2	99.2	100.9	30	62.2	3	7	270	0.00	29.848 
18:25	99.2	99.2	100.9	30	62.2	1	4	315	0.00	29.848 
18:30	99.4	99.4	101.3	30	62.4	3	9	315	0.00	29.846 
18:35	99.4	99.4	101.9	31	63.3	3	5	270	0.00	29.846 
18:40	99.2	99.2	101.5	31	63.2	2	4	270	0.00	29.846 
18:45	99.2	99.2	101.5	31	63.2	2	4	270	0.00	29.844 
18:50	99.4	99.4	101.3	30	62.4	2	5	270	0.00	29.844 
18:55	99.4	99.4	100.7	29	61.5	2	5	292	0.00	29.844 
19:00	99.4	99.4	100.7	29	61.5	2	6	315	0.00	29.844 
19:05	99.2	99.2	100.4	29	61.3	2	6	338	0.00	29.844 
19:10	99.0	99.0	100.1	29	61.1	3	5	270	0.00	29.844 
19:15	98.7	98.7	100.1	30	61.8	2	5	315	0.00	29.844 
19:20	98.7	98.7	100.1	30	61.8	3	6	270	0.00	29.844 
19:25	98.7	98.7	100.1	30	61.8	2	5	292	0.00	29.844 
19:30	98.5	98.5	100.3	31	62.6	2	4	315	0.00	29.845 
19:35	98.2	98.2	99.8	31	62.3	2	4	270	0.00	29.845 
19:40	98.2	98.2	100.4	32	63.2	1	3	270	0.00	29.845 
19:45	98.2	98.2	99.8	31	62.3	1	4	292	0.00	29.849 
19:50	98.2	98.2	99.8	31	62.3	1	2	248	0.00	29.849 
19:55	98.2	98.2	100.4	32	63.2	1	3	248	0.00	29.849 
20:00	98.0	98.0	100.6	33	63.9	1	4	270	0.00	29.849 
20:05	97.5	97.5	99.7	33	63.5	1	3	270	0.00	29.849 
20:10	97.1	97.1	99.5	34	64.0	1	2	270	0.00	29.849 
20:15	96.8	96.8	99.5	35	64.6	1	3	270	0.00	29.850 
20:20	96.3	96.3	99.2	36	64.9	1	4	292	0.00	29.850 
20:25	96.1	96.1	99.4	37	65.6	0	1	292	0.00	29.850 
20:30	95.6	95.6	99.0	38	65.9	1	2	292	0.00	29.855 
20:35	94.9	94.9	98.3	39	66.0	0	2	292	0.00	29.855 
20:40	94.3	94.3	98.2	41	66.9	0	2	292	0.00	29.855 
20:45	93.8	93.8	97.8	42	67.2	0	2	292	0.00	29.861 
20:50	93.4	93.4	97.6	43	67.5	0	2	292	0.00	29.861 
20:55	92.9	92.9	96.7	43	67.1	0	2	292	0.00	29.861 
21:00	92.5	92.5	96.4	44	67.4	0	1	292	0.00	29.862 
21:05	92.1	92.1	96.2	45	67.7	0	1	292	0.00	29.862 
21:10	91.8	91.8	95.6	45	67.4	0	1	292	0.00	29.862 
21:15	91.6	91.6	95.7	46	67.8	0	1	292	0.00	29.860 
21:20	91.2	91.2	95.0	46	67.5	0	1	292	0.00	29.860 
21:25	90.7	90.7	94.5	47	67.7	0	1	292	0.00	29.860 
21:30	90.5	90.5	94.2	47	67.5	0	0	---	0.00	29.869 
21:35	90.3	90.3	93.8	47	67.3	0	1	292	0.00	29.869 
21:40	89.9	89.9	93.5	48	67.5	0	0	---	0.00	29.869 
21:45	89.7	89.7	93.6	49	68.0	0	0	---	0.00	29.874 
21:50	89.3	89.3	92.9	49	67.6	0	0	---	0.00	29.874 
21:55	88.8	88.8	92.4	50	67.7	0	0	---	0.00	29.874 
22:00	88.6	88.6	92.1	50	67.5	0	0	---	0.00	29.876 
22:05	88.4	88.4	92.1	51	67.9	0	0	---	0.00	29.876 
22:10	88.2	88.2	92.1	52	68.3	0	0	---	0.00	29.876 
22:15	88.0	88.0	91.8	52	68.1	0	0	---	0.00	29.884 
22:20	87.8	87.8	91.4	52	67.9	0	1	292	0.00	29.884 
22:25	87.8	87.8	91.8	53	68.5	0	1	292	0.00	29.884 
22:30	87.6	87.6	91.5	53	68.3	0	2	292	0.00	29.891 
22:35	87.6	87.6	91.8	54	68.9	0	1	292	0.00	29.891 
22:40	87.4	87.4	91.5	54	68.7	0	1	292	0.00	29.891 
22:45	87.4	87.4	91.9	55	69.2	0	1	292	0.00	29.890 
22:50	87.2	87.2	91.5	55	69.0	0	1	292	0.00	29.890 
22:55	87.0	87.0	91.5	56	69.4	0	0	---	0.00	29.890 
23:00	86.7	86.7	91.0	56	69.1	0	0	---	0.00	29.888 
23:05	86.5	86.5	90.6	56	68.9	0	0	---	0.00	29.888 
23:10	86.3	86.3	90.6	57	69.2	0	0	---	0.00	29.888 
23:15	86.1	86.1	90.2	57	69.1	0	0	---	0.00	29.887 
23:20	86.1	86.1	90.2	57	69.1	0	0	---	0.00	29.887 
23:25	85.9	85.9	90.2	58	69.4	0	0	---	0.00	29.887 
23:30	85.7	85.7	89.9	58	69.2	0	0	---	0.00	29.890 
23:35	85.3	85.3	89.5	59	69.3	0	0	---	0.00	29.890 
23:40	85.1	85.1	89.4	60	69.6	0	1	292	0.00	29.890 
23:45	84.9	84.9	89.4	61	69.9	0	0	---	0.00	29.889 
23:50	84.7	84.7	89.0	61	69.7	0	1	292	0.00	29.889 
23:55	84.7	84.7	89.0	61	69.7	0	1	292	0.00	29.889 

CoCoRaHS
IN-AL-39
A2 Web Hosting
Creative Commons License
GoDaddy
search engine by freefind advanced

loaded 2018-11-22 05:47:16 • last modified 2010-11-18 10:43:29
Privacy PolicyDisclaimer
• wx.awcolley.com is powered by PmWiki v.2002016 •
• all content (unless otherwise noted) © 2018 A W Colley